createdAt,value
2018-05-12T00:01:37.672Z,80.44
2018-05-12T00:04:06.169Z,80.49
2018-05-12T00:06:34.606Z,80.46
2018-05-12T00:09:03.088Z,80.65
2018-05-12T00:11:31.541Z,81.10
2018-05-12T00:14:00.010Z,81.04
2018-05-12T00:16:28.450Z,80.82
2018-05-12T00:18:57.671Z,80.78
2018-05-12T00:21:26.871Z,80.69
2018-05-12T00:23:56.106Z,80.69
2018-05-12T00:26:24.518Z,80.75
2018-05-12T00:28:52.972Z,81.24
2018-05-12T00:31:21.400Z,81.12
2018-05-12T00:33:49.839Z,81.16
2018-05-12T00:36:18.279Z,81.58
2018-05-12T00:38:46.731Z,81.58
2018-05-12T00:41:15.143Z,81.85
2018-05-12T00:43:43.589Z,81.48
2018-05-12T00:46:12.016Z,81.03
2018-05-12T00:48:40.464Z,81.63
2018-05-12T00:51:08.877Z,82.05
2018-05-12T00:53:37.332Z,81.56
2018-05-12T00:56:05.753Z,81.32
2018-05-12T00:58:34.968Z,81.33
2018-05-12T01:01:04.168Z,81.71
2018-05-12T01:03:33.406Z,82.69
2018-05-12T01:06:01.843Z,82.04
2018-05-12T01:08:30.290Z,81.79
2018-05-12T01:10:58.699Z,81.50
2018-05-12T01:13:27.143Z,81.79
2018-05-12T01:15:55.559Z,81.64
2018-05-12T01:18:24.021Z,81.63
2018-05-12T01:20:52.441Z,81.46
2018-05-12T01:23:20.866Z,81.52
2018-05-12T01:25:49.343Z,81.30
2018-05-12T01:28:17.748Z,81.29
2018-05-12T01:30:46.187Z,81.16
2018-05-12T01:33:14.613Z,81.22
2018-05-12T01:35:43.051Z,81.17
2018-05-12T01:38:11.511Z,81.43
2018-05-12T01:40:39.944Z,81.55
2018-05-12T01:43:08.352Z,81.43
2018-05-12T01:45:36.807Z,81.28
2018-05-12T01:48:05.988Z,81.46
2018-05-12T01:50:34.431Z,82.55
2018-05-12T01:53:02.842Z,83.07
2018-05-12T01:55:31.297Z,82.93
2018-05-12T01:57:59.720Z,82.88
2018-05-12T02:00:28.161Z,82.42
2018-05-12T02:02:56.592Z,82.33
2018-05-12T02:05:25.055Z,82.17
2018-05-12T02:07:53.499Z,81.78
2018-05-12T02:10:21.935Z,81.51
2018-05-12T02:12:50.344Z,81.60
2018-05-12T02:15:19.554Z,81.75
2018-05-12T02:17:48.731Z,81.85
2018-05-12T02:20:17.189Z,81.79
2018-05-12T02:22:45.599Z,81.85
2018-05-12T02:25:14.077Z,81.88
2018-05-12T02:27:42.474Z,81.98
2018-05-12T02:30:10.927Z,82.26
2018-05-12T02:32:40.119Z,82.54
2018-05-12T02:35:08.575Z,82.79
2018-05-12T02:37:37.117Z,82.97
2018-05-12T02:40:05.590Z,83.37
2018-05-12T02:42:34.100Z,83.55
2018-05-12T02:45:02.553Z,83.25
2018-05-12T02:47:31.118Z,83.02
2018-05-12T02:49:59.590Z,82.86
2018-05-12T02:52:28.061Z,82.70
2018-05-12T02:54:57.260Z,82.27
2018-05-12T02:57:26.519Z,82.04
2018-05-12T02:59:54.960Z,81.99
2018-05-12T03:02:23.528Z,82.19
2018-05-12T03:04:51.991Z,81.64
2018-05-12T03:07:20.421Z,81.74
2018-05-12T03:09:49.627Z,82.12
2018-05-12T03:12:18.055Z,82.36
2018-05-12T03:14:46.516Z,82.55
2018-05-12T03:17:14.933Z,82.67
2018-05-12T03:19:43.395Z,82.77
2018-05-12T03:22:11.825Z,82.80
2018-05-12T03:24:41.060Z,82.66
2018-05-12T03:27:09.585Z,83.02
2018-05-12T03:29:38.013Z,82.93
2018-05-12T03:32:06.467Z,83.07
2018-05-12T03:34:34.895Z,83.15
2018-05-12T03:37:03.343Z,83.17
2018-05-12T03:39:31.750Z,83.33
2018-05-12T03:42:00.207Z,83.43
2018-05-12T03:44:28.623Z,83.54
2018-05-12T03:46:57.846Z,83.53
2018-05-12T03:49:27.228Z,83.64
2018-05-12T03:51:55.689Z,83.51
2018-05-12T03:54:24.107Z,83.32
2018-05-12T03:56:52.563Z,83.38
2018-05-12T03:59:21.759Z,83.52
2018-05-12T04:01:50.249Z,83.68
2018-05-12T04:04:37.102Z,83.92
2018-05-12T04:07:23.481Z,84.04
2018-05-12T04:10:09.417Z,84.11
2018-05-12T04:12:41.518Z,84.21
2018-05-12T04:15:10.827Z,84.25
2018-05-12T04:17:39.329Z,84.31
2018-05-12T04:20:07.841Z,84.65
2018-05-12T04:22:36.351Z,85.16
2018-05-12T04:25:04.783Z,85.52
2018-05-12T04:27:33.285Z,85.59
2018-05-12T04:30:01.700Z,85.28
2018-05-12T04:32:30.168Z,85.22
2018-05-12T04:34:58.574Z,84.98
2018-05-12T04:37:27.068Z,84.76
2018-05-12T04:39:55.497Z,84.65
2018-05-12T04:42:24.040Z,84.53
2018-05-12T04:44:52.538Z,85.03
2018-05-12T04:47:21.772Z,84.52
2018-05-12T04:49:50.181Z,84.54
2018-05-12T04:52:18.661Z,84.52
2018-05-12T04:54:47.084Z,85.04
2018-05-12T04:57:16.293Z,85.08
2018-05-12T04:59:44.706Z,84.44
2018-05-12T05:02:13.154Z,84.63
2018-05-12T05:04:41.590Z,84.45
2018-05-12T05:07:10.047Z,84.31
2018-05-12T05:09:39.241Z,84.04
2018-05-12T05:12:08.464Z,83.56
2018-05-12T05:14:36.913Z,83.22
2018-05-12T05:17:05.454Z,83.01
2018-05-12T05:19:33.869Z,82.41
2018-05-12T05:22:02.834Z,81.83
2018-05-12T05:24:31.280Z,81.63
2018-05-12T05:27:00.510Z,81.33
2018-05-12T05:29:29.127Z,81.40
2018-05-12T05:31:57.764Z,81.43
2018-05-12T05:34:26.970Z,81.19
2018-05-12T05:36:55.411Z,80.30
2018-05-12T05:39:23.870Z,80.18
2018-05-12T05:41:52.300Z,79.50
2018-05-12T05:44:20.762Z,79.25
2018-05-12T05:46:49.174Z,78.65
2018-05-12T05:49:17.646Z,77.82
2018-05-12T05:51:46.132Z,77.66
2018-05-12T05:54:16.079Z,77.87
2018-05-12T06:00:16.572Z,75.93
2018-05-12T06:02:45.827Z,74.55
2018-05-12T06:05:14.252Z,73.57
2018-05-12T06:07:42.728Z,72.94
2018-05-12T06:10:11.143Z,72.72
2018-05-12T06:12:40.364Z,71.07
2018-05-12T06:15:09.548Z,70.62
2018-05-12T06:17:38.800Z,67.81
2018-05-12T06:20:07.297Z,66.26
2018-05-12T06:22:35.981Z,65.33
2018-05-12T06:25:04.433Z,63.08
2018-05-12T06:27:32.957Z,64.65
2018-05-12T06:30:01.411Z,63.65
2018-05-12T06:32:29.893Z,62.78
2018-05-12T06:34:58.345Z,63.64
2018-05-12T06:37:27.660Z,61.80
2018-05-12T06:39:56.170Z,62.03
2018-05-12T06:42:24.759Z,60.27
2018-05-12T06:44:53.228Z,58.78
2018-05-12T06:47:21.706Z,58.27
2018-05-12T06:49:50.977Z,60.25
2018-05-12T06:52:19.476Z,61.18
2018-05-12T06:54:47.956Z,61.55
2018-05-12T06:57:16.443Z,61.08
2018-05-12T06:59:44.892Z,59.82
2018-05-12T07:02:13.321Z,60.64
2018-05-12T07:04:41.782Z,60.49
2018-05-12T07:07:10.217Z,61.69
2018-05-12T07:09:39.427Z,60.31
2018-05-12T07:12:07.857Z,60.04
2018-05-12T07:14:36.292Z,59.49
2018-05-12T07:17:04.790Z,58.08
2018-05-12T07:19:33.402Z,56.63
2018-05-12T07:22:01.744Z,58.84
2018-05-12T07:24:30.239Z,60.92
2018-05-12T07:26:58.663Z,57.09
2018-05-12T07:29:27.135Z,56.48
2018-05-12T07:31:55.562Z,54.60
2018-05-12T07:34:24.014Z,54.98
2018-05-12T07:36:52.432Z,53.07
2018-05-12T07:39:21.647Z,56.61
2018-05-12T07:41:50.849Z,56.80
2018-05-12T07:44:20.067Z,58.10
2018-05-12T07:46:49.527Z,51.83
2018-05-12T07:49:17.978Z,51.18
2018-05-12T07:51:46.440Z,50.35
2018-05-12T07:54:15.908Z,51.35
2018-05-12T07:56:44.816Z,51.77
2018-05-12T07:59:14.064Z,52.19
2018-05-12T08:01:42.485Z,50.64
2018-05-12T08:04:10.918Z,50.27
2018-05-12T08:06:39.368Z,50.27
2018-05-12T08:09:07.825Z,48.88
2018-05-12T08:11:36.312Z,51.99
2018-05-12T08:14:04.787Z,49.41
2018-05-12T08:16:33.214Z,49.66
2018-05-12T08:19:02.459Z,50.34
2018-05-12T08:21:30.871Z,51.98
2018-05-12T08:23:59.312Z,49.58
2018-05-12T08:26:27.735Z,50.18
2018-05-12T08:28:56.199Z,49.68
2018-05-12T08:31:24.627Z,50.70
2018-05-12T08:33:53.059Z,47.67
2018-05-12T08:36:21.654Z,51.59
2018-05-12T08:38:50.105Z,47.60
2018-05-12T08:41:18.548Z,48.51
2018-05-12T08:43:46.999Z,49.44
2018-05-12T08:46:15.446Z,47.41
2018-05-12T08:48:43.874Z,46.43
2018-05-12T08:51:12.318Z,47.15
2018-05-12T08:53:41.524Z,47.45
2018-05-12T08:56:09.972Z,49.25
2018-05-12T08:58:38.382Z,47.62
2018-05-12T09:01:06.847Z,47.21
2018-05-12T09:03:35.297Z,45.89
2018-05-12T09:06:03.768Z,47.38
2018-05-12T09:08:32.175Z,47.79
2018-05-12T09:11:00.625Z,46.98
2018-05-12T09:13:29.829Z,48.84
2018-05-12T09:15:59.028Z,46.88
2018-05-12T09:18:28.219Z,49.75
2018-05-12T09:20:57.452Z,49.59
2018-05-12T09:23:25.870Z,49.54
2018-05-12T09:25:54.345Z,46.74
2018-05-12T09:28:22.784Z,51.06
2018-05-12T09:30:51.997Z,48.23
2018-05-12T09:33:21.192Z,48.40
2018-05-12T09:35:50.412Z,49.31
2018-05-12T09:38:18.838Z,48.70
2018-05-12T09:40:47.284Z,47.27
2018-05-12T09:43:15.695Z,48.89
2018-05-12T09:45:44.393Z,46.70
2018-05-12T09:48:12.832Z,46.14
2018-05-12T09:50:41.292Z,46.19
2018-05-12T09:53:09.751Z,48.84
2018-05-12T09:55:38.234Z,42.90
2018-05-12T09:58:09.233Z,45.04
2018-05-12T10:00:37.692Z,45.68
2018-05-12T10:03:06.896Z,45.91
2018-05-12T10:05:36.117Z,45.12
2018-05-12T10:08:04.647Z,43.58
2018-05-12T10:10:33.101Z,47.71
2018-05-12T10:13:01.654Z,42.28
2018-05-12T10:15:30.898Z,43.86
2018-05-12T10:17:59.442Z,44.57
2018-05-12T10:20:28.678Z,40.89
2018-05-12T10:22:57.127Z,44.52
2018-05-12T10:25:25.641Z,43.34
2018-05-12T10:27:55.579Z,41.97
2018-05-12T10:30:25.241Z,41.47
2018-05-12T10:32:54.710Z,42.45
2018-05-12T10:35:23.174Z,38.89
2018-05-12T10:37:51.600Z,43.49
2018-05-12T10:40:20.066Z,42.53
2018-05-12T10:42:48.483Z,42.67
2018-05-12T10:45:16.913Z,41.40
2018-05-12T10:47:45.357Z,45.39
2018-05-12T10:50:13.801Z,42.96
2018-05-12T10:52:42.355Z,45.77
2018-05-12T10:55:11.645Z,42.40
2018-05-12T10:57:40.868Z,42.78
2018-05-12T11:00:09.311Z,43.79
2018-05-12T11:02:37.907Z,44.71
2018-05-12T11:05:06.355Z,41.42
2018-05-12T11:07:34.888Z,42.45
2018-05-12T11:10:04.091Z,44.05
2018-05-12T11:12:33.352Z,42.00
2018-05-12T11:15:01.768Z,45.36
2018-05-12T11:17:30.222Z,47.59
2018-05-12T11:19:58.627Z,42.24
2018-05-12T11:22:27.094Z,44.89
2018-05-12T11:24:55.504Z,43.28
2018-05-12T11:27:24.060Z,41.67
2018-05-12T11:29:52.464Z,42.88
2018-05-12T11:32:20.921Z,40.60
2018-05-12T11:34:49.353Z,42.23
2018-05-12T11:37:18.632Z,41.37
2018-05-12T11:39:47.043Z,40.47
2018-05-12T11:42:16.274Z,39.63
2018-05-12T11:44:44.706Z,40.20
2018-05-12T11:47:13.151Z,39.90
2018-05-12T11:49:41.551Z,41.43
2018-05-12T11:52:09.985Z,41.44
2018-05-12T11:54:38.435Z,40.57
2018-05-12T11:57:06.888Z,38.05
2018-05-12T11:59:35.312Z,40.76
2018-05-12T12:02:03.776Z,37.75
2018-05-12T12:04:32.205Z,40.37
2018-05-12T12:07:00.677Z,41.42
2018-05-12T12:09:29.087Z,39.59
2018-05-12T12:11:58.292Z,37.40
2018-05-12T12:14:26.715Z,38.90
2018-05-12T12:16:55.223Z,36.58
2018-05-12T12:19:23.643Z,37.06
2018-05-12T12:21:52.856Z,36.46
2018-05-12T12:24:21.278Z,40.25
2018-05-12T12:26:49.710Z,37.34
2018-05-12T12:29:18.897Z,37.69
2018-05-12T12:31:48.156Z,37.87
2018-05-12T12:34:16.575Z,38.25
2018-05-12T12:36:45.008Z,37.47
2018-05-12T12:39:13.452Z,39.23
2018-05-12T12:41:41.901Z,42.35
2018-05-12T12:44:10.324Z,37.47
2018-05-12T12:46:38.773Z,37.27
2018-05-12T12:49:07.197Z,38.28
2018-05-12T12:51:36.451Z,34.83
2018-05-12T12:54:04.889Z,35.70
2018-05-12T12:56:34.074Z,35.57
2018-05-12T12:59:02.540Z,36.61
2018-05-12T13:01:30.967Z,37.14
2018-05-12T13:04:00.160Z,37.76
2018-05-12T13:06:29.364Z,39.22
2018-05-12T13:08:58.581Z,39.91
2018-05-12T13:11:27.811Z,40.70
2018-05-12T13:13:56.336Z,38.92
2018-05-12T13:16:24.758Z,38.87
2018-05-12T13:18:53.226Z,38.83
2018-05-12T13:21:22.432Z,38.01
2018-05-12T13:23:51.660Z,38.39
2018-05-12T13:26:20.064Z,41.10
2018-05-12T13:28:48.507Z,37.09
2018-05-12T13:31:17.712Z,38.03
2018-05-12T13:33:46.950Z,37.78
2018-05-12T13:36:15.362Z,38.03
2018-05-12T13:38:43.822Z,39.99
2018-05-12T13:41:12.233Z,38.37
2018-05-12T13:43:40.682Z,37.99
2018-05-12T13:46:09.120Z,39.96
2018-05-12T13:48:38.338Z,39.57
2018-05-12T13:51:06.761Z,39.69
2018-05-12T13:53:35.217Z,37.35
2018-05-12T13:56:03.621Z,37.82
2018-05-12T13:58:32.055Z,38.08
2018-05-12T14:01:00.483Z,38.97
2018-05-12T14:03:28.942Z,36.68
2018-05-12T14:05:58.141Z,38.53
2018-05-12T14:08:27.336Z,37.60
2018-05-12T14:10:56.518Z,38.04
2018-05-12T14:13:24.962Z,37.87
2018-05-12T14:15:53.400Z,39.40
2018-05-12T14:18:22.615Z,37.01
2018-05-12T14:20:51.800Z,37.87
2018-05-12T14:23:20.241Z,38.58
2018-05-12T14:25:48.662Z,38.68
2018-05-12T14:28:17.099Z,38.91
2018-05-12T14:30:45.515Z,38.57
2018-05-12T14:33:13.964Z,38.33
2018-05-12T14:35:42.386Z,39.30
2018-05-12T14:38:10.830Z,36.11
2018-05-12T14:40:39.251Z,34.93
2018-05-12T14:43:07.695Z,36.31
2018-05-12T14:45:36.099Z,35.24
2018-05-12T14:48:04.540Z,36.69
2018-05-12T14:50:33.753Z,37.87
2018-05-12T14:53:02.166Z,36.41
2018-05-12T14:55:30.654Z,37.91
2018-05-12T14:57:59.069Z,37.78
2018-05-12T15:00:27.557Z,37.75
2018-05-12T15:02:55.980Z,37.22
2018-05-12T15:05:24.452Z,36.28
2018-05-12T15:07:53.696Z,37.00
2018-05-12T15:10:22.137Z,37.11
2018-05-12T15:12:56.103Z,35.83
2018-05-12T15:15:24.535Z,36.93
2018-05-12T15:17:53.730Z,35.93
2018-05-12T15:20:22.192Z,35.94
2018-05-12T15:22:50.609Z,36.05
2018-05-12T15:25:19.813Z,35.90
2018-05-12T15:27:49.656Z,34.16
2018-05-12T15:30:21.220Z,35.91
2018-05-12T15:32:50.747Z,36.57
2018-05-12T15:35:19.684Z,36.88
2018-05-12T15:37:48.888Z,37.70
2018-05-12T15:40:17.410Z,36.92
2018-05-12T15:42:45.814Z,38.05
2018-05-12T15:45:14.269Z,37.28
2018-05-12T15:47:42.673Z,37.25
2018-05-12T15:50:11.165Z,35.06
2018-05-12T15:52:39.625Z,36.40
2018-05-12T15:55:08.097Z,36.08
2018-05-12T15:57:36.522Z,37.09
2018-05-12T16:00:05.083Z,36.82
2018-05-12T16:02:33.532Z,36.04
2018-05-12T16:05:02.754Z,36.43
2018-05-12T16:07:31.179Z,35.66
2018-05-12T16:09:59.651Z,37.29
2018-05-12T16:12:28.079Z,36.22
2018-05-12T16:14:56.527Z,35.45
2018-05-12T16:17:25.060Z,37.45
2018-05-12T16:19:54.271Z,37.32
2018-05-12T16:22:23.618Z,36.99
2018-05-12T16:24:52.064Z,36.25
2018-05-12T16:27:21.245Z,36.75
2018-05-12T16:29:49.705Z,36.03
2018-05-12T16:32:18.116Z,34.96
2018-05-12T16:34:47.343Z,36.24
2018-05-12T16:37:15.750Z,35.32
2018-05-12T16:39:44.235Z,36.67
2018-05-12T16:42:12.674Z,37.52
2018-05-12T16:44:42.033Z,38.21
2018-05-12T16:47:10.388Z,38.06
2018-05-12T16:49:38.840Z,38.19
2018-05-12T16:52:08.039Z,37.94
2018-05-12T16:54:39.538Z,38.56
2018-05-12T16:57:08.105Z,37.71
2018-05-12T16:59:37.344Z,38.21
2018-05-12T17:02:05.760Z,38.44
2018-05-12T17:04:34.196Z,38.42
2018-05-12T17:07:02.640Z,38.70
2018-05-12T17:09:31.057Z,39.88
2018-05-12T17:11:59.522Z,40.21
2018-05-12T17:14:28.703Z,40.32
2018-05-12T17:16:57.161Z,39.60
2018-05-12T17:19:25.601Z,40.14
2018-05-12T17:21:54.066Z,40.02
2018-05-12T17:24:23.275Z,40.97
2018-05-12T17:26:52.475Z,40.22
2018-05-12T17:29:21.669Z,39.67
2018-05-12T17:31:50.894Z,40.35
2018-05-12T17:34:19.359Z,40.72
2018-05-12T17:36:48.576Z,40.88
2018-05-12T17:39:18.435Z,41.96
2018-05-12T17:41:46.868Z,42.06
2018-05-12T17:44:16.233Z,42.29
2018-05-12T17:46:44.629Z,42.38
2018-05-12T17:49:13.045Z,42.69
2018-05-12T17:51:42.263Z,42.77
2018-05-12T17:54:10.695Z,43.12
2018-05-12T17:56:39.160Z,43.17
2018-05-12T17:59:07.585Z,42.69
2018-05-12T18:01:36.042Z,43.85
2018-05-12T18:04:04.461Z,43.75
2018-05-12T18:06:33.718Z,44.83
2018-05-12T18:09:02.124Z,44.81
2018-05-12T18:11:30.676Z,44.43
2018-05-12T18:13:59.030Z,44.71
2018-05-12T18:16:27.504Z,44.89
2018-05-12T18:18:56.707Z,44.87
2018-05-12T18:21:25.908Z,45.40
2018-05-12T18:23:55.097Z,45.39
2018-05-12T18:26:23.544Z,45.06
2018-05-12T18:28:51.983Z,45.26
2018-05-12T18:31:21.601Z,45.71
2018-05-12T18:33:50.811Z,45.40
2018-05-12T18:36:19.416Z,45.52
2018-05-12T18:38:47.834Z,45.81
2018-05-12T18:41:16.305Z,45.54
2018-05-12T18:43:44.709Z,45.62
2018-05-12T18:46:13.167Z,46.47
2018-05-12T18:48:41.593Z,46.04
2018-05-12T18:51:10.037Z,46.21
2018-05-12T18:53:38.496Z,46.92
2018-05-12T18:56:06.957Z,47.90
2018-05-12T18:58:36.141Z,48.87
2018-05-12T19:01:04.617Z,49.91
2018-05-12T19:03:33.066Z,50.94
2018-05-12T19:06:01.558Z,51.76
2018-05-12T19:08:29.959Z,51.61
2018-05-12T19:10:58.479Z,51.57
2018-05-12T19:13:27.704Z,52.09
2018-05-12T19:15:56.892Z,53.08
2018-05-12T19:18:26.156Z,53.88
2018-05-12T19:20:54.677Z,54.40
2018-05-12T19:23:23.161Z,54.73
2018-05-12T19:25:52.368Z,54.48
2018-05-12T19:28:22.319Z,54.95
2018-05-12T19:30:50.777Z,55.38
2018-05-12T19:33:19.982Z,56.31
2018-05-12T19:35:49.450Z,56.32
2018-05-12T19:38:17.916Z,55.27
2018-05-12T19:40:46.340Z,56.11
2018-05-12T19:43:15.051Z,55.91
2018-05-12T19:45:44.275Z,55.89
2018-05-12T19:48:13.551Z,55.14
2018-05-12T19:50:42.744Z,55.44
2018-05-12T19:53:12.093Z,55.79
2018-05-12T19:55:40.679Z,56.13
2018-05-12T19:58:09.197Z,55.88
2018-05-12T20:00:37.643Z,55.28
2018-05-12T20:03:06.099Z,54.20
2018-05-12T20:05:35.296Z,53.42
2018-05-12T20:08:04.800Z,52.64
2018-05-12T20:10:33.243Z,53.57
2018-05-12T20:13:01.816Z,50.84
2018-05-12T20:15:31.245Z,51.12
2018-05-12T20:17:59.923Z,51.13
2018-05-12T20:20:30.121Z,51.96
2018-05-12T20:22:58.605Z,52.51
2018-05-12T20:25:28.211Z,53.03
2018-05-12T20:27:57.466Z,54.85
2018-05-12T20:30:25.918Z,57.34
2018-05-12T20:32:54.395Z,60.04
2018-05-12T20:35:22.840Z,61.29
2018-05-12T20:37:52.633Z,62.53
2018-05-12T20:40:21.073Z,63.29
2018-05-12T20:42:51.526Z,64.71
2018-05-12T20:45:20.123Z,66.89
2018-05-12T20:47:49.035Z,66.82
2018-05-12T20:50:17.484Z,67.59
2018-05-12T20:52:45.932Z,67.77
2018-05-12T20:55:15.130Z,67.36
2018-05-12T20:57:44.550Z,66.02
2018-05-12T21:00:13.182Z,67.34
2018-05-12T21:02:41.895Z,69.93
2018-05-12T21:05:10.322Z,70.51
2018-05-12T21:07:38.823Z,71.61
2018-05-12T21:10:08.142Z,70.47
2018-05-12T21:12:36.619Z,71.76
2018-05-12T21:15:05.060Z,73.46
2018-05-12T21:17:33.612Z,73.96
2018-05-12T21:20:02.023Z,74.10
2018-05-12T21:22:30.461Z,73.70
2018-05-12T21:24:59.003Z,75.36
2018-05-12T21:27:27.751Z,76.39
2018-05-12T21:29:56.282Z,77.99
2018-05-12T21:32:25.674Z,77.75
2018-05-12T21:34:54.230Z,78.25
2018-05-12T21:37:22.770Z,78.68
2018-05-12T21:39:52.194Z,79.10
2018-05-12T21:42:20.632Z,79.46
2018-05-12T21:44:49.413Z,78.63
2018-05-12T21:47:17.942Z,78.70
2018-05-12T21:49:46.860Z,79.17
2018-05-12T21:52:15.436Z,78.90
2018-05-12T21:54:44.639Z,79.32
2018-05-12T21:57:13.132Z,80.23
2018-05-12T21:59:41.631Z,79.75
2018-05-12T22:02:10.054Z,79.64
2018-05-12T22:04:38.889Z,79.83
2018-05-12T22:07:08.064Z,80.60
2018-05-12T22:09:36.493Z,81.12
2018-05-12T22:12:04.933Z,81.83
2018-05-12T22:14:33.374Z,81.12
2018-05-12T22:17:01.779Z,80.47
2018-05-12T22:19:30.244Z,79.86
2018-05-12T22:21:58.680Z,79.25
2018-05-12T22:24:27.897Z,79.99
2018-05-12T22:26:57.084Z,80.27
2018-05-12T22:29:26.296Z,80.02
2018-05-12T22:31:55.500Z,80.46
2018-05-12T22:34:24.783Z,80.81
2018-05-12T22:36:54.001Z,80.94
2018-05-12T22:39:23.227Z,80.36
2018-05-12T22:41:51.642Z,80.17
2018-05-12T22:44:20.095Z,80.15
2018-05-12T22:46:48.500Z,79.75
2018-05-12T22:49:16.916Z,79.43
2018-05-12T22:51:45.600Z,78.48
2018-05-12T22:54:13.962Z,78.58
2018-05-12T22:56:42.442Z,77.88
2018-05-12T22:59:10.851Z,77.92
2018-05-12T23:01:39.302Z,77.49
2018-05-12T23:04:07.740Z,76.69
2018-05-12T23:06:36.979Z,77.01
2018-05-12T23:09:05.448Z,77.07
2018-05-12T23:11:34.656Z,76.30
2018-05-12T23:14:03.073Z,75.87
2018-05-12T23:16:31.543Z,76.15
2018-05-12T23:18:59.965Z,76.87
2018-05-12T23:21:28.395Z,77.20
2018-05-12T23:23:57.580Z,76.60
2018-05-12T23:26:27.462Z,76.31
2018-05-12T23:28:55.884Z,76.03
2018-05-12T23:31:25.080Z,76.53
2018-05-12T23:33:54.272Z,76.46
2018-05-12T23:36:22.711Z,76.09
2018-05-12T23:38:51.116Z,75.65
2018-05-12T23:41:19.567Z,74.90
2018-05-12T23:43:47.987Z,73.97
2018-05-12T23:46:16.450Z,73.53
2018-05-12T23:48:44.896Z,72.22
2018-05-12T23:51:14.163Z,72.82
2018-05-12T23:53:42.570Z,72.70
2018-05-12T23:56:11.007Z,72.43
2018-05-12T23:58:39.427Z,73.32
